sensor_id;sensor_type;location;lat;lon;timestamp;P1;durP1;ratioP1;P2;durP2;ratioP2
19687;SDS011;9993;52.008;4.732;2023-02-22T00:01:30;45.40;;;18.13;;
19687;SDS011;9993;52.008;4.732;2023-02-22T00:09:50;49.83;;;17.80;;
19687;SDS011;9993;52.008;4.732;2023-02-22T00:12:27;44.10;;;19.23;;
19687;SDS011;9993;52.008;4.732;2023-02-22T00:14:53;38.57;;;17.50;;
19687;SDS011;9993;52.008;4.732;2023-02-22T00:17:27;51.90;;;20.63;;
19687;SDS011;9993;52.008;4.732;2023-02-22T00:19:54;44.50;;;18.13;;
19687;SDS011;9993;52.008;4.732;2023-02-22T00:22:32;44.40;;;17.43;;
19687;SDS011;9993;52.008;4.732;2023-02-22T00:24:57;45.33;;;17.70;;
19687;SDS011;9993;52.008;4.732;2023-02-22T00:27:23;43.93;;;18.60;;
19687;SDS011;9993;52.008;4.732;2023-02-22T00:29:48;42.53;;;17.77;;
19687;SDS011;9993;52.008;4.732;2023-02-22T00:32:13;40.33;;;17.33;;
19687;SDS011;9993;52.008;4.732;2023-02-22T00:34:39;42.60;;;17.73;;
19687;SDS011;9993;52.008;4.732;2023-02-22T00:37:04;35.37;;;17.17;;
19687;SDS011;9993;52.008;4.732;2023-02-22T00:39:29;38.80;;;16.97;;
19687;SDS011;9993;52.008;4.732;2023-02-22T00:41:55;39.27;;;17.90;;
19687;SDS011;9993;52.008;4.732;2023-02-22T00:44:29;40.97;;;18.63;;
19687;SDS011;9993;52.008;4.732;2023-02-22T00:47:00;45.57;;;18.67;;
19687;SDS011;9993;52.008;4.732;2023-02-22T00:49:26;38.53;;;17.10;;
19687;SDS011;9993;52.008;4.732;2023-02-22T00:51:51;40.80;;;17.37;;
19687;SDS011;9993;52.008;4.732;2023-02-22T00:54:16;42.67;;;17.67;;
19687;SDS011;9993;52.008;4.732;2023-02-22T00:56:50;39.80;;;18.63;;
19687;SDS011;9993;52.008;4.732;2023-02-22T00:59:15;47.53;;;18.07;;
19687;SDS011;9993;52.008;4.732;2023-02-22T01:01:41;42.67;;;17.63;;
19687;SDS011;9993;52.008;4.732;2023-02-22T01:04:07;41.63;;;17.37;;
19687;SDS011;9993;52.008;4.732;2023-02-22T01:06:41;42.70;;;17.93;;
19687;SDS011;9993;52.008;4.732;2023-02-22T01:09:21;41.10;;;16.57;;
19687;SDS011;9993;52.008;4.732;2023-02-22T01:12:01;43.47;;;17.80;;
19687;SDS011;9993;52.008;4.732;2023-02-22T01:14:43;40.23;;;18.73;;
19687;SDS011;9993;52.008;4.732;2023-02-22T01:17:08;42.07;;;17.97;;
19687;SDS011;9993;52.008;4.732;2023-02-22T01:25:42;43.07;;;17.60;;
19687;SDS011;9993;52.008;4.732;2023-02-22T01:28:07;46.83;;;18.17;;
19687;SDS011;9993;52.008;4.732;2023-02-22T01:30:33;39.37;;;16.70;;
19687;SDS011;9993;52.008;4.732;2023-02-22T01:32:59;40.27;;;16.50;;
19687;SDS011;9993;52.008;4.732;2023-02-22T01:35:26;31.67;;;15.07;;
19687;SDS011;9993;52.008;4.732;2023-02-22T01:37:52;43.63;;;18.90;;
19687;SDS011;9993;52.008;4.732;2023-02-22T01:40:26;38.17;;;16.70;;
19687;SDS011;9993;52.008;4.732;2023-02-22T01:54:22;43.60;;;18.20;;
19687;SDS011;9993;52.008;4.732;2023-02-22T01:59:24;46.87;;;18.53;;
19687;SDS011;9993;52.008;4.732;2023-02-22T02:02:07;43.97;;;19.37;;
19687;SDS011;9993;52.008;4.732;2023-02-22T02:04:32;45.67;;;18.77;;
19687;SDS011;9993;52.008;4.732;2023-02-22T02:07:02;43.97;;;18.70;;
19687;SDS011;9993;52.008;4.732;2023-02-22T02:09:33;41.47;;;16.67;;
19687;SDS011;9993;52.008;4.732;2023-02-22T02:12:00;45.13;;;19.27;;
19687;SDS011;9993;52.008;4.732;2023-02-22T02:14:39;43.13;;;17.57;;
19687;SDS011;9993;52.008;4.732;2023-02-22T02:17:13;42.30;;;18.20;;
19687;SDS011;9993;52.008;4.732;2023-02-22T02:19:55;44.10;;;19.00;;
19687;SDS011;9993;52.008;4.732;2023-02-22T02:22:45;44.10;;;19.93;;
19687;SDS011;9993;52.008;4.732;2023-02-22T02:30:48;24.47;;;14.00;;
19687;SDS011;9993;52.008;4.732;2023-02-22T02:37:46;42.40;;;17.53;;
19687;SDS011;9993;52.008;4.732;2023-02-22T02:42:49;49.87;;;19.23;;
19687;SDS011;9993;52.008;4.732;2023-02-22T02:45:20;51.20;;;19.67;;
19687;SDS011;9993;52.008;4.732;2023-02-22T02:47:49;49.03;;;18.90;;
19687;SDS011;9993;52.008;4.732;2023-02-22T02:50:18;50.80;;;20.00;;
19687;SDS011;9993;52.008;4.732;2023-02-22T02:52:45;47.17;;;19.73;;
19687;SDS011;9993;52.008;4.732;2023-02-22T02:55:11;53.60;;;21.13;;
19687;SDS011;9993;52.008;4.732;2023-02-22T02:57:37;50.07;;;21.93;;
19687;SDS011;9993;52.008;4.732;2023-02-22T03:00:05;49.27;;;20.00;;
19687;SDS011;9993;52.008;4.732;2023-02-22T03:13:30;48.80;;;18.83;;
19687;SDS011;9993;52.008;4.732;2023-02-22T03:18:48;64.17;;;22.73;;
19687;SDS011;9993;52.008;4.732;2023-02-22T03:21:22;54.33;;;21.57;;
19687;SDS011;9993;52.008;4.732;2023-02-22T03:26:21;52.33;;;22.27;;
19687;SDS011;9993;52.008;4.732;2023-02-22T03:28:48;51.30;;;21.57;;
19687;SDS011;9993;52.008;4.732;2023-02-22T03:31:17;54.50;;;21.33;;
19687;SDS011;9993;52.008;4.732;2023-02-22T03:33:51;55.67;;;21.47;;
19687;SDS011;9993;52.008;4.732;2023-02-22T03:36:23;54.73;;;19.67;;
19687;SDS011;9993;52.008;4.732;2023-02-22T03:38:49;62.43;;;20.77;;
19687;SDS011;9993;52.008;4.732;2023-02-22T03:41:22;64.13;;;22.80;;
19687;SDS011;9993;52.008;4.732;2023-02-22T03:43:53;61.80;;;22.20;;
19687;SDS011;9993;52.008;4.732;2023-02-22T03:46:19;61.47;;;22.13;;
19687;SDS011;9993;52.008;4.732;2023-02-22T03:48:48;61.23;;;22.63;;
19687;SDS011;9993;52.008;4.732;2023-02-22T03:51:14;60.17;;;22.77;;
19687;SDS011;9993;52.008;4.732;2023-02-22T03:53:40;65.50;;;25.10;;
19687;SDS011;9993;52.008;4.732;2023-02-22T03:56:08;67.50;;;24.20;;
19687;SDS011;9993;52.008;4.732;2023-02-22T03:58:35;55.13;;;21.77;;
19687;SDS011;9993;52.008;4.732;2023-02-22T04:01:01;69.53;;;24.87;;
19687;SDS011;9993;52.008;4.732;2023-02-22T04:03:27;60.87;;;23.43;;
19687;SDS011;9993;52.008;4.732;2023-02-22T04:05:52;62.13;;;21.77;;
19687;SDS011;9993;52.008;4.732;2023-02-22T04:08:18;64.00;;;19.93;;
19687;SDS011;9993;52.008;4.732;2023-02-22T04:10:43;60.70;;;20.67;;
19687;SDS011;9993;52.008;4.732;2023-02-22T04:13:08;70.90;;;22.83;;
19687;SDS011;9993;52.008;4.732;2023-02-22T04:15:34;72.43;;;22.93;;
19687;SDS011;9993;52.008;4.732;2023-02-22T04:18:00;78.80;;;23.57;;
19687;SDS011;9993;52.008;4.732;2023-02-22T04:20:28;84.70;;;23.03;;
19687;SDS011;9993;52.008;4.732;2023-02-22T04:22:56;69.47;;;20.13;;
19687;SDS011;9993;52.008;4.732;2023-02-22T04:25:30;58.43;;;19.90;;
19687;SDS011;9993;52.008;4.732;2023-02-22T04:27:56;62.57;;;21.47;;
19687;SDS011;9993;52.008;4.732;2023-02-22T04:30:21;69.00;;;22.23;;
19687;SDS011;9993;52.008;4.732;2023-02-22T04:32:47;80.67;;;25.13;;
19687;SDS011;9993;52.008;4.732;2023-02-22T04:35:12;63.13;;;22.50;;
19687;SDS011;9993;52.008;4.732;2023-02-22T04:37:37;72.60;;;23.70;;
19687;SDS011;9993;52.008;4.732;2023-02-22T04:40:03;78.90;;;21.80;;
19687;SDS011;9993;52.008;4.732;2023-02-22T04:42:32;67.00;;;20.60;;
19687;SDS011;9993;52.008;4.732;2023-02-22T04:44:57;92.07;;;20.97;;
19687;SDS011;9993;52.008;4.732;2023-02-22T04:47:23;68.87;;;18.93;;
19687;SDS011;9993;52.008;4.732;2023-02-22T04:49:48;65.07;;;19.73;;
19687;SDS011;9993;52.008;4.732;2023-02-22T04:52:13;78.23;;;19.10;;
19687;SDS011;9993;52.008;4.732;2023-02-22T04:54:39;71.40;;;19.43;;
19687;SDS011;9993;52.008;4.732;2023-02-22T04:57:05;81.73;;;21.73;;
19687;SDS011;9993;52.008;4.732;2023-02-22T04:59:30;80.40;;;18.80;;
19687;SDS011;9993;52.008;4.732;2023-02-22T05:01:57;54.50;;;16.03;;
19687;SDS011;9993;52.008;4.732;2023-02-22T05:04:24;59.60;;;19.50;;
19687;SDS011;9993;52.008;4.732;2023-02-22T05:06:49;69.30;;;19.13;;
19687;SDS011;9993;52.008;4.732;2023-02-22T05:09:14;61.83;;;19.70;;
19687;SDS011;9993;52.008;4.732;2023-02-22T05:11:39;63.80;;;20.27;;
19687;SDS011;9993;52.008;4.732;2023-02-22T05:14:05;81.30;;;19.43;;
19687;SDS011;9993;52.008;4.732;2023-02-22T05:16:30;60.40;;;18.77;;
19687;SDS011;9993;52.008;4.732;2023-02-22T05:18:55;40.60;;;17.20;;
19687;SDS011;9993;52.008;4.732;2023-02-22T05:21:20;40.87;;;16.70;;
19687;SDS011;9993;52.008;4.732;2023-02-22T05:23:46;52.07;;;15.97;;
19687;SDS011;9993;52.008;4.732;2023-02-22T05:26:11;58.27;;;19.10;;
19687;SDS011;9993;52.008;4.732;2023-02-22T05:28:36;67.67;;;18.63;;
19687;SDS011;9993;52.008;4.732;2023-02-22T05:31:01;70.03;;;19.93;;
19687;SDS011;9993;52.008;4.732;2023-02-22T05:33:26;52.53;;;17.07;;
19687;SDS011;9993;52.008;4.732;2023-02-22T05:35:52;57.20;;;18.87;;
19687;SDS011;9993;52.008;4.732;2023-02-22T05:38:29;54.37;;;15.93;;
19687;SDS011;9993;52.008;4.732;2023-02-22T05:40:54;45.30;;;16.30;;
19687;SDS011;9993;52.008;4.732;2023-02-22T05:43:30;50.20;;;19.07;;
19687;SDS011;9993;52.008;4.732;2023-02-22T05:46:04;49.07;;;18.27;;
19687;SDS011;9993;52.008;4.732;2023-02-22T05:51:30;55.63;;;18.90;;
19687;SDS011;9993;52.008;4.732;2023-02-22T05:53:58;45.13;;;18.33;;
19687;SDS011;9993;52.008;4.732;2023-02-22T05:56:26;49.47;;;17.20;;
19687;SDS011;9993;52.008;4.732;2023-02-22T05:58:57;54.13;;;17.97;;
19687;SDS011;9993;52.008;4.732;2023-02-22T06:01:34;52.70;;;17.33;;
19687;SDS011;9993;52.008;4.732;2023-02-22T06:03:59;57.17;;;17.83;;
19687;SDS011;9993;52.008;4.732;2023-02-22T06:06:24;53.03;;;17.23;;
19687;SDS011;9993;52.008;4.732;2023-02-22T06:08:50;44.63;;;16.40;;
19687;SDS011;9993;52.008;4.732;2023-02-22T06:11:24;41.70;;;17.00;;
19687;SDS011;9993;52.008;4.732;2023-02-22T06:13:50;48.63;;;17.57;;
19687;SDS011;9993;52.008;4.732;2023-02-22T06:16:15;40.73;;;17.07;;
19687;SDS011;9993;52.008;4.732;2023-02-22T06:18:40;37.87;;;15.07;;
19687;SDS011;9993;52.008;4.732;2023-02-22T06:21:06;41.20;;;16.27;;
19687;SDS011;9993;52.008;4.732;2023-02-22T06:23:32;53.07;;;17.33;;
19687;SDS011;9993;52.008;4.732;2023-02-22T06:25:58;49.83;;;17.27;;
19687;SDS011;9993;52.008;4.732;2023-02-22T06:28:36;38.67;;;16.60;;
19687;SDS011;9993;52.008;4.732;2023-02-22T06:31:18;44.00;;;17.57;;
19687;SDS011;9993;52.008;4.732;2023-02-22T06:33:43;47.13;;;16.83;;
19687;SDS011;9993;52.008;4.732;2023-02-22T06:36:09;46.60;;;18.10;;
19687;SDS011;9993;52.008;4.732;2023-02-22T06:38:35;40.43;;;14.87;;
19687;SDS011;9993;52.008;4.732;2023-02-22T06:41:02;45.63;;;18.07;;
19687;SDS011;9993;52.008;4.732;2023-02-22T06:43:29;44.50;;;17.33;;
19687;SDS011;9993;52.008;4.732;2023-02-22T06:45:57;44.13;;;17.40;;
19687;SDS011;9993;52.008;4.732;2023-02-22T06:48:25;51.47;;;17.30;;
19687;SDS011;9993;52.008;4.732;2023-02-22T06:50:56;43.73;;;16.87;;
19687;SDS011;9993;52.008;4.732;2023-02-22T06:53:21;47.77;;;16.23;;
19687;SDS011;9993;52.008;4.732;2023-02-22T06:55:53;39.43;;;16.37;;
19687;SDS011;9993;52.008;4.732;2023-02-22T06:58:19;48.10;;;16.67;;
19687;SDS011;9993;52.008;4.732;2023-02-22T07:00:44;45.03;;;17.47;;
19687;SDS011;9993;52.008;4.732;2023-02-22T07:03:15;43.93;;;17.37;;
19687;SDS011;9993;52.008;4.732;2023-02-22T07:05:41;49.17;;;19.17;;
19687;SDS011;9993;52.008;4.732;2023-02-22T07:08:06;50.97;;;18.70;;
19687;SDS011;9993;52.008;4.732;2023-02-22T07:10:32;52.93;;;19.20;;
19687;SDS011;9993;52.008;4.732;2023-02-22T07:12:58;49.73;;;17.03;;
19687;SDS011;9993;52.008;4.732;2023-02-22T07:15:25;45.53;;;18.23;;
19687;SDS011;9993;52.008;4.732;2023-02-22T07:17:51;43.47;;;18.30;;
19687;SDS011;9993;52.008;4.732;2023-02-22T07:20:17;51.67;;;18.37;;
19687;SDS011;9993;52.008;4.732;2023-02-22T07:22:44;45.17;;;18.87;;
19687;SDS011;9993;52.008;4.732;2023-02-22T07:25:09;45.07;;;17.37;;
19687;SDS011;9993;52.008;4.732;2023-02-22T07:27:38;44.60;;;16.93;;
19687;SDS011;9993;52.008;4.732;2023-02-22T07:30:04;49.33;;;17.87;;
19687;SDS011;9993;52.008;4.732;2023-02-22T07:32:30;50.07;;;18.40;;
19687;SDS011;9993;52.008;4.732;2023-02-22T07:34:55;43.53;;;18.37;;
19687;SDS011;9993;52.008;4.732;2023-02-22T07:37:20;41.57;;;16.47;;
19687;SDS011;9993;52.008;4.732;2023-02-22T07:39:46;48.13;;;19.00;;
19687;SDS011;9993;52.008;4.732;2023-02-22T07:42:11;39.80;;;16.27;;
19687;SDS011;9993;52.008;4.732;2023-02-22T07:44:36;43.33;;;17.93;;
19687;SDS011;9993;52.008;4.732;2023-02-22T07:47:01;44.03;;;18.20;;
19687;SDS011;9993;52.008;4.732;2023-02-22T07:49:26;47.73;;;18.87;;
19687;SDS011;9993;52.008;4.732;2023-02-22T07:51:52;37.00;;;17.43;;
19687;SDS011;9993;52.008;4.732;2023-02-22T07:54:17;48.93;;;18.40;;
19687;SDS011;9993;52.008;4.732;2023-02-22T07:56:45;36.63;;;17.73;;
19687;SDS011;9993;52.008;4.732;2023-02-22T07:59:11;44.97;;;18.00;;
19687;SDS011;9993;52.008;4.732;2023-02-22T08:01:36;38.10;;;17.80;;
19687;SDS011;9993;52.008;4.732;2023-02-22T08:04:01;42.87;;;15.40;;
19687;SDS011;9993;52.008;4.732;2023-02-22T08:06:26;43.93;;;18.10;;
19687;SDS011;9993;52.008;4.732;2023-02-22T08:08:52;43.73;;;16.70;;
19687;SDS011;9993;52.008;4.732;2023-02-22T08:11:17;41.63;;;16.67;;
19687;SDS011;9993;52.008;4.732;2023-02-22T08:13:42;41.17;;;17.07;;
19687;SDS011;9993;52.008;4.732;2023-02-22T08:16:07;39.87;;;18.40;;
19687;SDS011;9993;52.008;4.732;2023-02-22T08:18:33;44.30;;;18.73;;
19687;SDS011;9993;52.008;4.732;2023-02-22T08:20:58;43.07;;;15.93;;
19687;SDS011;9993;52.008;4.732;2023-02-22T08:23:23;35.53;;;13.87;;
19687;SDS011;9993;52.008;4.732;2023-02-22T08:25:49;36.87;;;16.13;;
19687;SDS011;9993;52.008;4.732;2023-02-22T08:28:16;45.10;;;18.33;;
19687;SDS011;9993;52.008;4.732;2023-02-22T08:30:41;41.27;;;16.57;;
19687;SDS011;9993;52.008;4.732;2023-02-22T08:33:07;34.53;;;15.83;;
19687;SDS011;9993;52.008;4.732;2023-02-22T08:35:33;35.67;;;15.77;;
19687;SDS011;9993;52.008;4.732;2023-02-22T08:38:00;39.30;;;16.37;;
19687;SDS011;9993;52.008;4.732;2023-02-22T08:40:28;39.60;;;16.70;;
19687;SDS011;9993;52.008;4.732;2023-02-22T08:42:55;46.27;;;17.27;;
19687;SDS011;9993;52.008;4.732;2023-02-22T08:45:20;45.97;;;18.37;;
19687;SDS011;9993;52.008;4.732;2023-02-22T08:47:45;30.63;;;14.37;;
19687;SDS011;9993;52.008;4.732;2023-02-22T08:50:17;35.13;;;16.77;;
19687;SDS011;9993;52.008;4.732;2023-02-22T08:52:43;41.37;;;17.83;;
19687;SDS011;9993;52.008;4.732;2023-02-22T08:55:08;36.23;;;16.50;;
19687;SDS011;9993;52.008;4.732;2023-02-22T08:57:33;39.23;;;17.40;;
19687;SDS011;9993;52.008;4.732;2023-02-22T08:59:59;37.87;;;16.50;;
19687;SDS011;9993;52.008;4.732;2023-02-22T09:02:24;50.30;;;20.70;;
19687;SDS011;9993;52.008;4.732;2023-02-22T09:04:49;43.53;;;18.13;;
19687;SDS011;9993;52.008;4.732;2023-02-22T09:07:15;47.97;;;18.80;;
19687;SDS011;9993;52.008;4.732;2023-02-22T09:09:43;48.20;;;20.13;;
19687;SDS011;9993;52.008;4.732;2023-02-22T09:12:09;48.37;;;19.50;;
19687;SDS011;9993;52.008;4.732;2023-02-22T09:14:34;47.67;;;18.80;;
19687;SDS011;9993;52.008;4.732;2023-02-22T09:17:00;40.30;;;18.87;;
19687;SDS011;9993;52.008;4.732;2023-02-22T09:19:25;48.37;;;18.57;;
19687;SDS011;9993;52.008;4.732;2023-02-22T09:21:51;38.40;;;17.87;;
19687;SDS011;9993;52.008;4.732;2023-02-22T09:24:16;42.10;;;19.17;;
19687;SDS011;9993;52.008;4.732;2023-02-22T09:26:44;41.40;;;17.70;;
19687;SDS011;9993;52.008;4.732;2023-02-22T09:29:11;38.87;;;17.27;;
19687;SDS011;9993;52.008;4.732;2023-02-22T09:31:36;39.93;;;16.93;;
19687;SDS011;9993;52.008;4.732;2023-02-22T09:34:03;34.47;;;16.53;;
19687;SDS011;9993;52.008;4.732;2023-02-22T09:36:28;43.93;;;17.73;;
19687;SDS011;9993;52.008;4.732;2023-02-22T09:38:53;36.17;;;18.00;;
19687;SDS011;9993;52.008;4.732;2023-02-22T09:41:24;30.80;;;15.37;;
19687;SDS011;9993;52.008;4.732;2023-02-22T09:44:19;32.67;;;16.43;;
19687;SDS011;9993;52.008;4.732;2023-02-22T09:46:41;35.97;;;15.70;;
19687;SDS011;9993;52.008;4.732;2023-02-22T09:51:46;38.83;;;17.13;;
19687;SDS011;9993;52.008;4.732;2023-02-22T09:54:18;31.50;;;14.70;;
19687;SDS011;9993;52.008;4.732;2023-02-22T09:56:45;33.17;;;16.87;;
19687;SDS011;9993;52.008;4.732;2023-02-22T09:59:14;35.50;;;18.43;;
19687;SDS011;9993;52.008;4.732;2023-02-22T10:01:46;30.37;;;16.37;;
19687;SDS011;9993;52.008;4.732;2023-02-22T10:09:30;27.77;;;14.27;;
19687;SDS011;9993;52.008;4.732;2023-02-22T10:12:01;28.30;;;14.90;;
19687;SDS011;9993;52.008;4.732;2023-02-22T10:14:57;34.00;;;14.90;;
19687;SDS011;9993;52.008;4.732;2023-02-22T10:18:00;28.73;;;14.90;;
19687;SDS011;9993;52.008;4.732;2023-02-22T10:20:38;27.03;;;14.60;;
19687;SDS011;9993;52.008;4.732;2023-02-22T10:25:52;27.60;;;14.30;;
19687;SDS011;9993;52.008;4.732;2023-02-22T10:28:20;28.00;;;14.93;;
19687;SDS011;9993;52.008;4.732;2023-02-22T10:30:52;27.87;;;14.67;;
19687;SDS011;9993;52.008;4.732;2023-02-22T10:33:25;28.10;;;15.03;;
19687;SDS011;9993;52.008;4.732;2023-02-22T10:35:53;22.83;;;13.77;;
19687;SDS011;9993;52.008;4.732;2023-02-22T10:38:20;30.43;;;15.97;;
19687;SDS011;9993;52.008;4.732;2023-02-22T10:43:19;30.30;;;15.27;;
19687;SDS011;9993;52.008;4.732;2023-02-22T10:45:44;28.20;;;14.93;;
19687;SDS011;9993;52.008;4.732;2023-02-22T10:48:11;29.10;;;14.87;;
19687;SDS011;9993;52.008;4.732;2023-02-22T10:50:38;29.63;;;14.73;;
19687;SDS011;9993;52.008;4.732;2023-02-22T10:53:04;30.40;;;15.63;;
19687;SDS011;9993;52.008;4.732;2023-02-22T10:55:30;30.10;;;15.80;;
19687;SDS011;9993;52.008;4.732;2023-02-22T10:58:01;26.60;;;15.00;;
19687;SDS011;9993;52.008;4.732;2023-02-22T11:00:30;28.30;;;15.83;;
19687;SDS011;9993;52.008;4.732;2023-02-22T11:02:59;28.33;;;15.40;;
19687;SDS011;9993;52.008;4.732;2023-02-22T11:05:26;27.90;;;15.37;;
19687;SDS011;9993;52.008;4.732;2023-02-22T11:07:52;28.50;;;14.57;;
19687;SDS011;9993;52.008;4.732;2023-02-22T11:10:38;27.67;;;14.57;;
19687;SDS011;9993;52.008;4.732;2023-02-22T11:13:15;24.97;;;14.53;;
19687;SDS011;9993;52.008;4.732;2023-02-22T11:15:40;25.70;;;12.93;;
19687;SDS011;9993;52.008;4.732;2023-02-22T11:18:05;26.13;;;13.90;;
19687;SDS011;9993;52.008;4.732;2023-02-22T11:20:33;23.23;;;14.40;;
19687;SDS011;9993;52.008;4.732;2023-02-22T11:23:00;26.40;;;14.27;;
19687;SDS011;9993;52.008;4.732;2023-02-22T11:25:31;26.57;;;14.20;;
19687;SDS011;9993;52.008;4.732;2023-02-22T11:28:05;27.80;;;15.10;;
19687;SDS011;9993;52.008;4.732;2023-02-22T11:30:31;25.13;;;13.00;;
19687;SDS011;9993;52.008;4.732;2023-02-22T11:35:36;24.67;;;14.77;;
19687;SDS011;9993;52.008;4.732;2023-02-22T11:40:40;25.83;;;13.37;;
19687;SDS011;9993;52.008;4.732;2023-02-22T11:43:12;23.63;;;14.40;;
19687;SDS011;9993;52.008;4.732;2023-02-22T11:45:38;23.47;;;13.50;;
19687;SDS011;9993;52.008;4.732;2023-02-22T11:48:04;20.97;;;12.53;;
19687;SDS011;9993;52.008;4.732;2023-02-22T11:52:59;26.63;;;13.50;;
19687;SDS011;9993;52.008;4.732;2023-02-22T11:55:50;22.80;;;13.37;;
19687;SDS011;9993;52.008;4.732;2023-02-22T12:16:06;21.50;;;13.50;;
19687;SDS011;9993;52.008;4.732;2023-02-22T12:21:02;22.97;;;14.07;;
19687;SDS011;9993;52.008;4.732;2023-02-22T12:23:37;22.07;;;12.67;;
19687;SDS011;9993;52.008;4.732;2023-02-22T12:26:10;20.20;;;13.13;;
19687;SDS011;9993;52.008;4.732;2023-02-22T12:32:08;22.57;;;13.67;;
19687;SDS011;9993;52.008;4.732;2023-02-22T12:34:14;22.77;;;13.53;;
19687;SDS011;9993;52.008;4.732;2023-02-22T12:36:46;20.13;;;12.27;;
19687;SDS011;9993;52.008;4.732;2023-02-22T12:39:58;20.10;;;12.47;;
19687;SDS011;9993;52.008;4.732;2023-02-22T12:42:02;22.03;;;13.30;;
19687;SDS011;9993;52.008;4.732;2023-02-22T12:44:33;20.13;;;13.80;;
19687;SDS011;9993;52.008;4.732;2023-02-22T12:46:59;21.47;;;14.17;;
19687;SDS011;9993;52.008;4.732;2023-02-22T12:59:55;20.13;;;13.83;;
19687;SDS011;9993;52.008;4.732;2023-02-22T13:02:24;22.20;;;13.87;;
19687;SDS011;9993;52.008;4.732;2023-02-22T13:04:50;23.80;;;13.57;;
19687;SDS011;9993;52.008;4.732;2023-02-22T13:14:43;21.70;;;13.77;;
19687;SDS011;9993;52.008;4.732;2023-02-22T13:17:16;20.27;;;13.57;;
19687;SDS011;9993;52.008;4.732;2023-02-22T13:22:15;22.33;;;13.53;;
19687;SDS011;9993;52.008;4.732;2023-02-22T13:30:04;22.87;;;14.27;;
19687;SDS011;9993;52.008;4.732;2023-02-22T13:42:47;20.90;;;14.23;;
19687;SDS011;9993;52.008;4.732;2023-02-22T13:53:04;26.93;;;15.47;;
19687;SDS011;9993;52.008;4.732;2023-02-22T13:55:31;26.50;;;15.10;;
19687;SDS011;9993;52.008;4.732;2023-02-22T13:58:16;26.53;;;15.30;;
19687;SDS011;9993;52.008;4.732;2023-02-22T14:00:46;26.93;;;15.93;;
19687;SDS011;9993;52.008;4.732;2023-02-22T14:08:05;26.40;;;16.40;;
19687;SDS011;9993;52.008;4.732;2023-02-22T14:10:35;26.97;;;14.47;;
19687;SDS011;9993;52.008;4.732;2023-02-22T14:13:05;25.40;;;16.33;;
19687;SDS011;9993;52.008;4.732;2023-02-22T14:15:30;26.93;;;15.73;;
19687;SDS011;9993;52.008;4.732;2023-02-22T14:20:36;24.80;;;16.30;;
19687;SDS011;9993;52.008;4.732;2023-02-22T14:25:45;28.00;;;16.70;;
19687;SDS011;9993;52.008;4.732;2023-02-22T14:31:08;25.73;;;16.57;;
19687;SDS011;9993;52.008;4.732;2023-02-22T14:33:50;27.33;;;16.70;;
19687;SDS011;9993;52.008;4.732;2023-02-22T14:36:17;24.23;;;16.40;;
19687;SDS011;9993;52.008;4.732;2023-02-22T14:38:43;26.77;;;16.17;;
19687;SDS011;9993;52.008;4.732;2023-02-22T14:41:08;29.60;;;17.23;;
19687;SDS011;9993;52.008;4.732;2023-02-22T14:43:35;28.07;;;17.20;;
19687;SDS011;9993;52.008;4.732;2023-02-22T14:46:01;22.93;;;16.30;;
19687;SDS011;9993;52.008;4.732;2023-02-22T14:48:30;24.63;;;15.73;;
19687;SDS011;9993;52.008;4.732;2023-02-22T14:51:04;23.07;;;15.90;;
19687;SDS011;9993;52.008;4.732;2023-02-22T14:56:06;26.47;;;17.27;;
19687;SDS011;9993;52.008;4.732;2023-02-22T15:00:58;23.43;;;15.93;;
19687;SDS011;9993;52.008;4.732;2023-02-22T15:05:48;25.87;;;16.87;;
19687;SDS011;9993;52.008;4.732;2023-02-22T15:08:14;25.83;;;16.70;;
19687;SDS011;9993;52.008;4.732;2023-02-22T15:10:44;26.60;;;17.20;;
19687;SDS011;9993;52.008;4.732;2023-02-22T15:13:23;25.77;;;17.23;;
19687;SDS011;9993;52.008;4.732;2023-02-22T15:15:55;30.07;;;18.87;;
19687;SDS011;9993;52.008;4.732;2023-02-22T15:18:36;30.10;;;18.97;;
19687;SDS011;9993;52.008;4.732;2023-02-22T15:21:05;26.90;;;18.23;;
19687;SDS011;9993;52.008;4.732;2023-02-22T15:26:35;27.23;;;19.23;;
19687;SDS011;9993;52.008;4.732;2023-02-22T15:29:01;31.27;;;19.37;;
19687;SDS011;9993;52.008;4.732;2023-02-22T15:31:31;30.60;;;19.97;;
19687;SDS011;9993;52.008;4.732;2023-02-22T15:34:07;32.10;;;21.47;;
19687;SDS011;9993;52.008;4.732;2023-02-22T15:36:33;32.33;;;21.83;;
19687;SDS011;9993;52.008;4.732;2023-02-22T15:38:59;29.53;;;20.63;;
19687;SDS011;9993;52.008;4.732;2023-02-22T15:41:27;33.07;;;21.37;;
19687;SDS011;9993;52.008;4.732;2023-02-22T15:43:55;35.37;;;22.47;;
19687;SDS011;9993;52.008;4.732;2023-02-22T15:46:21;34.93;;;22.97;;
19687;SDS011;9993;52.008;4.732;2023-02-22T15:49:02;34.43;;;23.60;;
19687;SDS011;9993;52.008;4.732;2023-02-22T15:53:52;37.20;;;23.97;;
19687;SDS011;9993;52.008;4.732;2023-02-22T15:56:30;41.57;;;28.07;;
19687;SDS011;9993;52.008;4.732;2023-02-22T15:58:59;39.47;;;26.83;;
19687;SDS011;9993;52.008;4.732;2023-02-22T16:01:27;46.17;;;28.37;;
19687;SDS011;9993;52.008;4.732;2023-02-22T16:03:54;40.07;;;25.97;;
19687;SDS011;9993;52.008;4.732;2023-02-22T16:06:31;43.80;;;27.57;;
19687;SDS011;9993;52.008;4.732;2023-02-22T16:09:12;47.27;;;28.13;;
19687;SDS011;9993;52.008;4.732;2023-02-22T16:11:39;41.53;;;28.73;;
19687;SDS011;9993;52.008;4.732;2023-02-22T16:16:48;50.13;;;30.70;;
19687;SDS011;9993;52.008;4.732;2023-02-22T16:19:18;47.03;;;31.40;;
19687;SDS011;9993;52.008;4.732;2023-02-22T16:22:06;55.37;;;33.00;;
19687;SDS011;9993;52.008;4.732;2023-02-22T16:24:38;51.57;;;33.03;;
19687;SDS011;9993;52.008;4.732;2023-02-22T16:29:35;59.40;;;31.40;;
19687;SDS011;9993;52.008;4.732;2023-02-22T16:32:00;60.87;;;34.67;;
19687;SDS011;9993;52.008;4.732;2023-02-22T16:34:25;59.10;;;33.87;;
19687;SDS011;9993;52.008;4.732;2023-02-22T16:36:51;67.43;;;39.30;;
19687;SDS011;9993;52.008;4.732;2023-02-22T16:39:27;69.17;;;38.10;;
19687;SDS011;9993;52.008;4.732;2023-02-22T16:41:53;72.83;;;40.03;;
19687;SDS011;9993;52.008;4.732;2023-02-22T16:44:19;70.90;;;37.30;;
19687;SDS011;9993;52.008;4.732;2023-02-22T16:46:45;88.17;;;46.63;;
19687;SDS011;9993;52.008;4.732;2023-02-22T16:49:10;93.07;;;46.10;;
19687;SDS011;9993;52.008;4.732;2023-02-22T16:51:55;91.37;;;46.67;;
19687;SDS011;9993;52.008;4.732;2023-02-22T16:54:22;76.70;;;43.67;;
19687;SDS011;9993;52.008;4.732;2023-02-22T16:56:48;89.03;;;43.77;;
19687;SDS011;9993;52.008;4.732;2023-02-22T16:59:14;91.57;;;44.83;;
19687;SDS011;9993;52.008;4.732;2023-02-22T17:01:40;87.17;;;47.97;;
19687;SDS011;9993;52.008;4.732;2023-02-22T17:04:12;99.60;;;47.43;;
19687;SDS011;9993;52.008;4.732;2023-02-22T17:06:38;92.80;;;46.17;;
19687;SDS011;9993;52.008;4.732;2023-02-22T17:09:03;94.23;;;47.13;;
19687;SDS011;9993;52.008;4.732;2023-02-22T17:11:28;88.57;;;44.30;;
19687;SDS011;9993;52.008;4.732;2023-02-22T17:13:54;78.40;;;41.20;;
19687;SDS011;9993;52.008;4.732;2023-02-22T17:16:19;82.37;;;41.10;;
19687;SDS011;9993;52.008;4.732;2023-02-22T17:18:44;86.37;;;45.03;;
19687;SDS011;9993;52.008;4.732;2023-02-22T17:21:10;87.63;;;46.43;;
19687;SDS011;9993;52.008;4.732;2023-02-22T17:23:35;74.83;;;40.50;;
19687;SDS011;9993;52.008;4.732;2023-02-22T17:26:00;78.47;;;41.43;;
19687;SDS011;9993;52.008;4.732;2023-02-22T17:28:26;76.80;;;37.83;;
19687;SDS011;9993;52.008;4.732;2023-02-22T17:30:52;71.40;;;39.50;;
19687;SDS011;9993;52.008;4.732;2023-02-22T17:33:19;69.70;;;35.97;;
19687;SDS011;9993;52.008;4.732;2023-02-22T17:35:44;68.47;;;37.23;;
19687;SDS011;9993;52.008;4.732;2023-02-22T17:38:11;64.47;;;35.47;;